createdAt,value
2019-06-20T00:00:42.491Z,23.72
2019-06-20T00:03:13.627Z,23.60
2019-06-20T00:05:44.790Z,23.46
2019-06-20T00:08:15.878Z,23.35
2019-06-20T00:10:47.040Z,23.24
2019-06-20T00:13:18.130Z,23.17
2019-06-20T00:15:49.382Z,23.11
2019-06-20T00:18:20.498Z,23.00
2019-06-20T00:20:52.031Z,22.93
2019-06-20T00:23:23.137Z,22.84
2019-06-20T00:25:54.293Z,22.76
2019-06-20T00:28:25.385Z,22.70
2019-06-20T00:30:56.532Z,25.34
2019-06-20T00:33:27.616Z,26.72
2019-06-20T00:35:58.748Z,26.07
2019-06-20T00:38:29.839Z,25.42
2019-06-20T00:41:00.998Z,24.97
2019-06-20T00:43:32.078Z,24.65
2019-06-20T00:46:03.267Z,24.41
2019-06-20T00:48:34.427Z,24.15
2019-06-20T00:51:05.597Z,23.94
2019-06-20T00:53:36.704Z,23.74
2019-06-20T00:56:07.872Z,23.56
2019-06-20T00:58:39.041Z,23.39
2019-06-20T01:01:10.149Z,23.25
2019-06-20T01:03:41.750Z,23.10
2019-06-20T01:06:12.894Z,22.95
2019-06-20T01:08:43.993Z,22.86
2019-06-20T01:11:15.150Z,22.74
2019-06-20T01:13:46.372Z,25.35
2019-06-20T01:16:17.683Z,26.63
2019-06-20T01:18:49.388Z,25.93
2019-06-20T01:21:20.553Z,25.28
2019-06-20T01:23:51.658Z,24.83
2019-06-20T01:26:22.794Z,24.49
2019-06-20T01:28:53.883Z,24.22
2019-06-20T01:31:25.031Z,23.99
2019-06-20T01:33:56.132Z,23.77
2019-06-20T01:36:27.277Z,23.56
2019-06-20T01:38:58.380Z,23.39
2019-06-20T01:41:29.514Z,23.19
2019-06-20T01:44:00.634Z,23.08
2019-06-20T01:46:32.199Z,25.69
2019-06-20T01:49:03.290Z,26.93
2019-06-20T01:51:34.558Z,26.20
2019-06-20T01:54:05.670Z,25.55
2019-06-20T01:56:36.792Z,25.07
2019-06-20T01:59:07.885Z,24.67
2019-06-20T02:01:39.040Z,24.39
2019-06-20T02:04:10.134Z,24.12
2019-06-20T02:06:41.384Z,23.87
2019-06-20T02:09:12.486Z,23.67
2019-06-20T02:11:43.744Z,23.45
2019-06-20T02:14:14.868Z,23.28
2019-06-20T02:16:46.565Z,23.08
2019-06-20T02:19:17.676Z,22.94
2019-06-20T02:21:48.852Z,22.79
2019-06-20T02:24:19.940Z,22.69
2019-06-20T02:26:51.101Z,25.13
2019-06-20T02:29:22.187Z,26.47
2019-06-20T02:31:53.335Z,25.75
2019-06-20T02:34:24.436Z,25.04
2019-06-20T02:36:55.600Z,24.54
2019-06-20T02:39:26.693Z,24.15
2019-06-20T02:41:57.895Z,23.86
2019-06-20T02:44:30.824Z,23.56
2019-06-20T02:47:01.949Z,23.34
2019-06-20T02:49:33.050Z,23.10
2019-06-20T02:52:05.098Z,22.90
2019-06-20T02:54:36.195Z,22.69
2019-06-20T02:57:07.371Z,22.55
2019-06-20T02:59:38.420Z,24.93
2019-06-20T03:02:09.558Z,26.23
2019-06-20T03:04:40.643Z,25.52
2019-06-20T03:07:11.806Z,24.83
2019-06-20T03:09:42.894Z,24.31
2019-06-20T03:12:14.022Z,23.93
2019-06-20T03:14:45.943Z,23.63
2019-06-20T03:17:17.587Z,23.35
2019-06-20T03:19:48.678Z,23.08
2019-06-20T03:22:19.860Z,22.86
2019-06-20T03:24:51.003Z,22.63
2019-06-20T03:27:22.111Z,22.45
2019-06-20T03:29:53.192Z,24.65
2019-06-20T03:32:24.380Z,26.00
2019-06-20T03:34:55.475Z,25.24
2019-06-20T03:37:26.714Z,24.58
2019-06-20T03:39:57.752Z,24.04
2019-06-20T03:42:29.124Z,23.67
2019-06-20T03:45:02.402Z,23.34
2019-06-20T03:47:32.983Z,23.04
2019-06-20T03:50:07.549Z,22.80
2019-06-20T03:52:38.701Z,22.64
2019-06-20T03:55:10.402Z,24.80
2019-06-20T03:57:41.565Z,26.14
2019-06-20T04:00:13.063Z,25.35
2019-06-20T04:02:44.625Z,24.67
2019-06-20T04:05:15.820Z,24.19
2019-06-20T04:07:46.967Z,23.83
2019-06-20T04:10:18.065Z,23.53
2019-06-20T04:12:49.240Z,23.36
2019-06-20T04:15:20.323Z,23.26
2019-06-20T04:17:52.011Z,23.25
2019-06-20T04:20:23.153Z,23.18
2019-06-20T04:22:54.332Z,23.02
2019-06-20T04:25:25.459Z,22.91
2019-06-20T04:27:56.617Z,22.83
2019-06-20T04:30:27.744Z,22.76
2019-06-20T04:32:58.870Z,22.64
2019-06-20T04:35:29.966Z,25.07
2019-06-20T04:38:01.145Z,28.56
2019-06-20T04:40:32.221Z,28.61
2019-06-20T04:43:03.412Z,27.55
2019-06-20T04:45:42.033Z,26.79
2019-06-20T04:48:13.637Z,26.26
2019-06-20T04:50:44.809Z,25.87
2019-06-20T04:53:15.912Z,25.62
2019-06-20T04:55:47.021Z,25.44
2019-06-20T04:58:18.175Z,25.27
2019-06-20T05:00:49.482Z,25.10
2019-06-20T05:03:20.636Z,24.93
2019-06-20T05:05:51.718Z,24.72
2019-06-20T05:08:22.861Z,24.59
2019-06-20T05:10:54.154Z,24.51
2019-06-20T05:13:25.305Z,24.46
2019-06-20T05:15:56.406Z,24.42
2019-06-20T05:18:27.546Z,24.41
2019-06-20T05:20:58.682Z,24.39
2019-06-20T05:23:29.806Z,24.39
2019-06-20T05:26:00.936Z,24.42
2019-06-20T05:28:33.252Z,24.41
2019-06-20T05:31:04.447Z,24.44
2019-06-20T05:33:35.536Z,24.45
2019-06-20T05:36:06.635Z,24.44
2019-06-20T05:38:37.745Z,24.48
2019-06-20T05:41:08.838Z,24.48
2019-06-20T05:43:39.951Z,24.51
2019-06-20T05:46:11.306Z,24.54
2019-06-20T05:48:43.336Z,24.56
2019-06-20T05:51:14.436Z,24.60
2019-06-20T05:53:45.554Z,24.67
2019-06-20T05:56:16.628Z,24.72
2019-06-20T05:58:47.758Z,24.79
2019-06-20T06:01:18.838Z,24.89
2019-06-20T06:03:49.951Z,24.94
2019-06-20T06:06:21.027Z,25.00
2019-06-20T06:08:52.135Z,25.06
2019-06-20T06:11:23.229Z,25.11
2019-06-20T06:13:54.332Z,25.17
2019-06-20T06:16:28.244Z,25.24
2019-06-20T06:18:58.191Z,25.31
2019-06-20T06:21:29.331Z,25.39
2019-06-20T06:24:00.469Z,25.46
2019-06-20T06:26:31.744Z,25.58
2019-06-20T06:29:03.274Z,25.65
2019-06-20T06:31:34.348Z,25.73
2019-06-20T06:34:05.654Z,25.82
2019-06-20T06:36:36.747Z,25.93
2019-06-20T06:39:11.663Z,26.11
2019-06-20T06:41:42.740Z,26.49
2019-06-20T06:44:13.883Z,26.87
2019-06-20T06:46:53.155Z,27.47
2019-06-20T06:49:17.733Z,28.23
2019-06-20T06:51:48.840Z,28.85
2019-06-20T06:54:19.948Z,29.16
2019-06-20T06:56:51.030Z,29.60
2019-06-20T06:59:22.296Z,29.98
2019-06-20T07:01:53.321Z,30.43
2019-06-20T07:04:24.434Z,30.86
2019-06-20T07:06:55.528Z,31.46
2019-06-20T07:09:26.651Z,31.92
2019-06-20T07:11:57.748Z,32.20
2019-06-20T07:14:29.308Z,32.39
2019-06-20T07:17:00.907Z,32.62
2019-06-20T07:19:32.135Z,33.15
2019-06-20T07:22:03.258Z,33.72
2019-06-20T07:24:34.373Z,34.32
2019-06-20T07:27:05.458Z,34.94
2019-06-20T07:29:36.599Z,35.44
2019-06-20T07:32:07.681Z,35.96
2019-06-20T07:34:38.841Z,36.41
2019-06-20T07:37:09.973Z,36.78
2019-06-20T07:39:41.090Z,37.15
2019-06-20T07:42:12.187Z,37.46
2019-06-20T07:44:43.418Z,37.71
2019-06-20T07:47:17.966Z,37.90
2019-06-20T07:49:47.260Z,38.14
2019-06-20T07:52:18.374Z,38.36
2019-06-20T07:54:49.513Z,38.53
2019-06-20T07:57:20.612Z,38.71
2019-06-20T07:59:51.737Z,38.87
2019-06-20T08:02:22.833Z,39.05
2019-06-20T08:04:53.944Z,39.18
2019-06-20T08:07:25.042Z,39.24
2019-06-20T08:09:56.175Z,39.11
2019-06-20T08:12:27.351Z,38.57
2019-06-20T08:15:13.971Z,37.94
2019-06-20T08:17:35.588Z,37.33
2019-06-20T08:20:09.593Z,36.78
2019-06-20T08:22:41.318Z,36.29
2019-06-20T08:25:14.369Z,35.83
2019-06-20T08:27:57.140Z,35.37
2019-06-20T08:30:36.492Z,34.97
2019-06-20T08:33:12.005Z,34.59
2019-06-20T08:35:42.300Z,34.25
2019-06-20T08:38:13.394Z,34.00
2019-06-20T08:40:44.620Z,33.73
2019-06-20T08:43:15.814Z,33.53
2019-06-20T08:45:47.063Z,33.29
2019-06-20T08:48:18.201Z,33.10
2019-06-20T08:50:49.351Z,32.94
2019-06-20T08:53:20.433Z,32.77
2019-06-20T08:55:51.538Z,32.63
2019-06-20T08:58:23.066Z,32.47
2019-06-20T09:00:55.871Z,32.33
2019-06-20T09:03:26.930Z,32.25
2019-06-20T09:05:58.267Z,32.15
2019-06-20T09:08:29.607Z,32.09
2019-06-20T09:11:01.818Z,32.04
2019-06-20T09:13:32.936Z,31.95
2019-06-20T09:16:04.172Z,31.94
2019-06-20T09:18:39.801Z,31.89
2019-06-20T09:21:10.928Z,31.81
2019-06-20T09:23:42.098Z,31.78
2019-06-20T09:26:13.239Z,31.71
2019-06-20T09:28:44.335Z,31.67
2019-06-20T09:31:15.443Z,31.64
2019-06-20T09:33:46.527Z,31.63
2019-06-20T09:36:17.856Z,31.67
2019-06-20T09:38:49.103Z,31.65
2019-06-20T09:41:20.211Z,31.70
2019-06-20T09:43:52.763Z,31.68
2019-06-20T09:46:23.937Z,31.70
2019-06-20T09:48:55.605Z,31.73
2019-06-20T09:51:26.834Z,31.71
2019-06-20T09:53:58.222Z,31.70
2019-06-20T09:56:29.478Z,31.73
2019-06-20T09:59:00.572Z,31.73
2019-06-20T10:01:31.884Z,31.75
2019-06-20T10:04:03.063Z,31.80
2019-06-20T10:06:34.323Z,31.78
2019-06-20T10:09:08.568Z,31.81
2019-06-20T10:11:39.684Z,31.81
2019-06-20T10:14:10.766Z,31.83
2019-06-20T10:16:45.682Z,31.83
2019-06-20T10:19:14.569Z,31.84
2019-06-20T10:21:46.752Z,31.84
2019-06-20T10:24:18.412Z,31.87
2019-06-20T10:26:49.635Z,31.87
2019-06-20T10:29:22.169Z,31.85
2019-06-20T10:31:53.296Z,31.85
2019-06-20T10:34:24.393Z,31.87
2019-06-20T10:36:56.985Z,31.85
2019-06-20T10:39:28.210Z,31.92
2019-06-20T10:41:59.356Z,31.94
2019-06-20T10:44:30.532Z,31.96
2019-06-20T10:47:01.702Z,32.02
2019-06-20T10:49:32.779Z,32.01
2019-06-20T10:52:04.349Z,31.99
2019-06-20T10:54:37.007Z,32.01
2019-06-20T10:57:08.486Z,32.04
2019-06-20T10:59:39.877Z,32.02
2019-06-20T11:02:12.221Z,32.04
2019-06-20T11:04:44.061Z,32.09
2019-06-20T11:07:15.352Z,32.09
2019-06-20T11:09:47.133Z,32.11
2019-06-20T11:12:18.394Z,32.14
2019-06-20T11:14:49.466Z,32.14
2019-06-20T11:17:20.914Z,32.15
2019-06-20T11:19:52.000Z,32.12
2019-06-20T11:22:23.163Z,32.12
2019-06-20T11:24:54.249Z,32.12
2019-06-20T11:27:25.400Z,32.12
2019-06-20T11:29:56.491Z,32.11
2019-06-20T11:32:27.627Z,32.11
2019-06-20T11:34:58.714Z,32.07
2019-06-20T11:37:29.855Z,32.05
2019-06-20T11:40:00.927Z,32.01
2019-06-20T11:42:32.071Z,31.96
2019-06-20T11:45:03.164Z,31.95
2019-06-20T11:47:35.482Z,31.95
2019-06-20T11:50:10.377Z,31.94
2019-06-20T11:52:45.355Z,31.99
2019-06-20T11:55:15.329Z,32.05
2019-06-20T11:57:46.471Z,32.09
2019-06-20T12:00:18.083Z,32.12
2019-06-20T12:02:50.275Z,32.12
2019-06-20T12:05:23.355Z,32.08
2019-06-20T12:07:54.628Z,32.04
2019-06-20T12:10:25.707Z,32.04
2019-06-20T12:12:57.536Z,32.05
2019-06-20T12:15:28.737Z,32.09
2019-06-20T12:18:00.249Z,32.18
2019-06-20T12:20:31.334Z,32.16
2019-06-20T12:23:02.501Z,32.15
2019-06-20T12:25:33.597Z,32.15
2019-06-20T12:28:04.812Z,32.11
2019-06-20T12:30:35.932Z,32.12
2019-06-20T12:33:07.071Z,32.11
2019-06-20T12:35:39.525Z,32.09
2019-06-20T12:38:15.054Z,32.07
2019-06-20T12:40:46.923Z,32.05
2019-06-20T12:43:18.911Z,32.09
2019-06-20T12:45:51.716Z,32.19
2019-06-20T12:48:23.698Z,32.23
2019-06-20T12:50:55.878Z,32.25
2019-06-20T12:53:29.838Z,32.29
2019-06-20T12:56:01.528Z,32.29
2019-06-20T12:58:37.344Z,32.32
2019-06-20T13:01:10.527Z,32.39
2019-06-20T13:03:42.813Z,32.40
2019-06-20T13:06:14.713Z,32.37
2019-06-20T13:08:47.416Z,32.32
2019-06-20T13:11:22.997Z,32.29
2019-06-20T13:13:54.734Z,32.22
2019-06-20T13:16:31.460Z,32.19
2019-06-20T13:19:02.960Z,32.16
2019-06-20T13:21:35.011Z,32.16
2019-06-20T13:24:07.036Z,32.20
2019-06-20T13:26:40.661Z,32.29
2019-06-20T13:29:12.997Z,32.32
2019-06-20T13:32:00.539Z,32.39
2019-06-20T13:34:20.831Z,32.44
2019-06-20T13:36:54.607Z,32.49
2019-06-20T13:39:27.145Z,32.56
2019-06-20T13:42:06.953Z,32.63
2019-06-20T13:44:42.581Z,32.62
2019-06-20T13:47:15.817Z,32.62
2019-06-20T13:49:48.268Z,32.57
2019-06-20T13:52:20.823Z,32.50
2019-06-20T13:54:52.516Z,32.43
2019-06-20T13:57:24.423Z,32.36
2019-06-20T13:59:56.623Z,32.33
2019-06-20T14:02:28.753Z,32.29
2019-06-20T14:05:01.490Z,32.23
2019-06-20T14:07:33.340Z,32.14
2019-06-20T14:10:07.593Z,32.08
2019-06-20T14:12:44.653Z,31.99
2019-06-20T14:15:18.217Z,31.89
2019-06-20T14:17:50.231Z,31.83
2019-06-20T14:20:23.425Z,31.74
2019-06-20T14:22:54.925Z,31.61
2019-06-20T14:25:26.557Z,31.54
2019-06-20T14:27:57.931Z,31.47
2019-06-20T14:30:31.680Z,31.39
2019-06-20T14:33:03.393Z,31.33
2019-06-20T14:35:35.062Z,31.23
2019-06-20T14:38:06.130Z,31.16
2019-06-20T14:40:37.676Z,31.05
2019-06-20T14:43:08.862Z,30.98
2019-06-20T14:45:40.009Z,30.91
2019-06-20T14:48:11.117Z,30.81
2019-06-20T14:50:43.796Z,30.63
2019-06-20T14:53:15.079Z,30.41
2019-06-20T14:55:49.775Z,30.20
2019-06-20T14:58:24.766Z,29.91
2019-06-20T15:00:57.396Z,29.58
2019-06-20T15:03:32.937Z,29.23
2019-06-20T15:06:11.612Z,28.92
2019-06-20T15:09:03.452Z,28.58
2019-06-20T15:11:30.142Z,28.31
2019-06-20T15:14:02.362Z,28.03
2019-06-20T15:16:34.204Z,27.82
2019-06-20T15:19:07.007Z,27.61
2019-06-20T15:21:40.652Z,27.35
2019-06-20T15:24:12.944Z,27.11
2019-06-20T15:26:45.849Z,26.89
2019-06-20T15:29:18.298Z,29.45
2019-06-20T15:31:53.118Z,30.44
2019-06-20T15:37:48.468Z,28.79
2019-06-20T15:40:25.527Z,28.33
2019-06-20T15:42:58.919Z,27.97
2019-06-20T15:45:30.777Z,27.64
2019-06-20T15:48:02.553Z,27.31
2019-06-20T15:50:35.236Z,27.03
2019-06-20T15:53:08.153Z,26.81
2019-06-20T15:55:42.980Z,26.58
2019-06-20T15:58:16.430Z,26.38
2019-06-20T16:00:48.394Z,26.24
2019-06-20T16:03:24.043Z,26.10
2019-06-20T16:05:57.679Z,28.61
2019-06-20T16:08:31.740Z,29.55
2019-06-20T16:11:06.196Z,28.96
2019-06-20T16:13:40.645Z,28.50
2019-06-20T16:16:12.989Z,28.19
2019-06-20T16:18:45.515Z,27.97
2019-06-20T16:21:16.854Z,27.80
2019-06-20T16:23:48.543Z,27.68
2019-06-20T16:26:19.895Z,27.62
2019-06-20T16:28:52.449Z,27.54
2019-06-20T16:31:27.064Z,27.50
2019-06-20T16:33:58.247Z,27.40
2019-06-20T16:36:30.167Z,27.30
2019-06-20T16:39:02.324Z,27.18
2019-06-20T16:41:33.565Z,27.10
2019-06-20T16:44:06.050Z,26.99
2019-06-20T16:46:37.329Z,26.92
2019-06-20T16:49:09.501Z,26.82
2019-06-20T16:51:43.172Z,26.78
2019-06-20T16:54:15.497Z,26.73
2019-06-20T16:56:49.776Z,26.73
2019-06-20T16:59:23.160Z,26.70
2019-06-20T17:01:54.392Z,26.68
2019-06-20T17:04:27.877Z,26.69
2019-06-20T17:06:59.434Z,26.66
2019-06-20T17:09:30.974Z,26.65
2019-06-20T17:12:02.083Z,26.63
2019-06-20T17:14:33.328Z,26.66
2019-06-20T17:17:04.512Z,26.66
2019-06-20T17:19:36.411Z,26.69
2019-06-20T17:22:07.899Z,26.69
2019-06-20T17:24:39.508Z,26.70
2019-06-20T17:27:10.775Z,26.70
2019-06-20T17:29:42.319Z,26.70
2019-06-20T17:32:14.443Z,26.72
2019-06-20T17:34:45.966Z,26.72
2019-06-20T17:37:17.511Z,26.70
2019-06-20T17:39:48.796Z,26.69
2019-06-20T17:42:19.889Z,26.68
2019-06-20T17:44:51.267Z,26.65
2019-06-20T17:47:22.634Z,26.63
2019-06-20T17:49:54.058Z,26.62
2019-06-20T17:52:25.655Z,26.63
2019-06-20T17:54:57.108Z,26.60
2019-06-20T17:57:29.183Z,26.59
2019-06-20T18:00:00.747Z,26.60
2019-06-20T18:02:32.416Z,26.62
2019-06-20T18:05:04.295Z,26.60
2019-06-20T18:07:35.454Z,26.60
2019-06-20T18:10:10.785Z,26.62
2019-06-20T18:12:42.023Z,26.56
2019-06-20T18:15:14.273Z,26.59
2019-06-20T18:17:45.373Z,26.56
2019-06-20T18:20:17.439Z,26.58
2019-06-20T18:22:48.710Z,26.59
2019-06-20T18:27:08.028Z,26.59
2019-06-20T18:30:53.710Z,26.62
2019-06-20T18:33:24.821Z,26.65
2019-06-20T18:35:56.144Z,26.63
2019-06-20T18:38:27.476Z,26.63
2019-06-20T18:40:58.819Z,26.62
2019-06-20T18:43:29.921Z,26.62
2019-06-20T18:46:01.476Z,26.62
2019-06-20T18:48:33.109Z,26.58
2019-06-20T18:51:06.824Z,26.56
2019-06-20T18:53:38.157Z,26.55
2019-06-20T18:56:11.150Z,26.49
2019-06-20T18:58:42.319Z,26.42
2019-06-20T19:01:13.954Z,26.38
2019-06-20T19:03:46.159Z,26.28
2019-06-20T19:06:18.080Z,26.26
2019-06-20T19:08:49.179Z,26.17
2019-06-20T19:11:20.441Z,26.10
2019-06-20T19:17:00.939Z,25.94
2019-06-20T19:19:46.827Z,25.90
2019-06-20T19:25:22.435Z,29.36
2019-06-20T19:27:54.487Z,28.64
2019-06-20T19:30:42.637Z,28.07
2019-06-20T19:33:14.083Z,27.64
2019-06-20T19:35:45.532Z,27.32
2019-06-20T19:38:18.136Z,27.06
2019-06-20T19:40:51.151Z,26.82
2019-06-20T19:43:25.807Z,26.59
2019-06-20T19:45:58.552Z,26.40
2019-06-20T19:48:30.362Z,26.21
2019-06-20T19:51:02.543Z,26.04
2019-06-20T19:53:34.476Z,25.87
2019-06-20T19:56:06.837Z,25.70
2019-06-20T19:58:38.565Z,25.56
2019-06-20T20:01:10.477Z,25.44
2019-06-20T20:03:41.887Z,25.34
2019-06-20T20:06:15.134Z,27.83
2019-06-20T20:08:46.608Z,29.00
2019-06-20T20:11:17.948Z,28.27
2019-06-20T20:13:50.245Z,27.65
2019-06-20T20:16:22.506Z,27.18
2019-06-20T20:18:54.447Z,26.82
2019-06-20T20:21:26.529Z,26.49
2019-06-20T20:23:59.121Z,26.21
2019-06-20T20:26:31.847Z,25.93
2019-06-20T20:29:03.511Z,25.72
2019-06-20T20:31:35.148Z,25.48
2019-06-20T20:34:07.562Z,25.25
2019-06-20T20:36:41.153Z,27.71
2019-06-20T20:39:12.649Z,28.79
2019-06-20T20:44:46.674Z,27.21
2019-06-20T20:47:20.864Z,26.70
2019-06-20T20:56:16.814Z,25.55
2019-06-20T20:58:48.334Z,25.31
2019-06-20T21:01:29.333Z,27.65
2019-06-20T21:04:01.361Z,28.78
2019-06-20T21:06:32.489Z,27.95
2019-06-20T21:09:03.659Z,27.24
2019-06-20T21:11:35.737Z,26.72
2019-06-20T21:14:06.922Z,26.34
2019-06-20T21:16:38.159Z,25.96
2019-06-20T21:19:10.207Z,25.65
2019-06-20T21:21:41.339Z,28.02
2019-06-20T21:24:14.050Z,28.98
2019-06-20T21:26:49.564Z,28.14
2019-06-20T21:29:18.351Z,27.40
2019-06-20T21:31:49.468Z,26.81
2019-06-20T21:34:20.612Z,26.38
2019-06-20T21:36:51.741Z,25.99
2019-06-20T21:39:22.951Z,25.65
2019-06-20T21:41:54.075Z,25.32
2019-06-20T21:44:25.242Z,27.65
2019-06-20T21:46:56.378Z,28.72
2019-06-20T21:49:27.532Z,27.90
2019-06-20T21:51:58.665Z,27.14
2019-06-20T21:54:29.939Z,26.56
2019-06-20T21:57:01.064Z,26.11
2019-06-20T21:59:32.320Z,25.70
2019-06-20T22:02:03.563Z,25.35
2019-06-20T22:04:34.691Z,27.48
2019-06-20T22:07:05.922Z,30.50
2019-06-20T22:09:37.204Z,30.50
2019-06-20T22:12:08.331Z,29.30
2019-06-20T22:14:39.578Z,28.31
2019-06-20T22:17:10.727Z,27.59
2019-06-20T22:19:41.868Z,27.00
2019-06-20T22:22:13.000Z,26.49
2019-06-20T22:24:44.092Z,26.05
2019-06-20T22:27:15.209Z,25.65
2019-06-20T22:29:46.346Z,25.25
2019-06-20T22:32:17.511Z,24.91
2019-06-20T22:34:48.589Z,27.38
2019-06-20T22:37:19.713Z,28.33
2019-06-20T22:39:50.872Z,27.44
2019-06-20T22:42:22.127Z,26.65
2019-06-20T22:44:53.212Z,26.01
2019-06-20T22:47:24.528Z,25.52
2019-06-20T22:49:55.604Z,25.11
2019-06-20T22:52:26.858Z,24.74
2019-06-20T22:54:57.937Z,27.18
2019-06-20T22:57:29.217Z,28.14
2019-06-20T23:00:00.280Z,27.24
2019-06-20T23:02:31.984Z,26.47
2019-06-20T23:05:03.290Z,25.83
2019-06-20T23:07:34.628Z,25.32
2019-06-20T23:10:11.238Z,24.94
2019-06-20T23:12:42.288Z,24.56
2019-06-20T23:15:14.597Z,27.00
2019-06-20T23:17:45.847Z,28.05
2019-06-20T23:20:17.228Z,27.17
2019-06-20T23:22:48.525Z,26.38
2019-06-20T23:25:19.945Z,25.75
2019-06-20T23:27:51.025Z,25.21
2019-06-20T23:30:24.311Z,24.83
2019-06-20T23:32:55.393Z,24.46
2019-06-20T23:35:26.716Z,26.87
2019-06-20T23:37:57.820Z,29.47
2019-06-20T23:40:29.028Z,28.75
2019-06-20T23:43:00.814Z,27.68
2019-06-20T23:45:31.928Z,26.83
2019-06-20T23:48:03.009Z,26.19
2019-06-20T23:50:34.141Z,25.66
2019-06-20T23:53:05.009Z,25.20
2019-06-20T23:55:36.437Z,24.77
2019-06-20T23:58:07.526Z,24.44
